Time;durP1;ratioP1;P1;durP2;ratioP2;P2;SDS_P1;SDS_P2;PMS_P1;PMS_P2;Temp;Humidity;BMP_temperature;BMP_pressure;BME280_temperature;BME280_humidity;BME280_pressure;Samples;Min_cycle;Max_cycle;Signal;HPM_P1;HPM_P2
2022/12/28 00:01:24;;;;;;;14.20;5.75;;;;;;;2.08;70.21;102230.15;1803484;77;27552;-63
2022/12/28 00:03:52;;;;;;;17.75;6.20;;;;;;;2.10;70.18;102236.29;1805055;77;25759;-62
2022/12/28 00:06:23;;;;;;;9.35;4.75;;;;;;;2.11;69.99;102235.34;1785777;78;25827;-62
2022/12/28 00:08:52;;;;;;;11.22;4.70;;;;;;;2.11;69.60;102230.03;1812464;77;25927;-63
2022/12/28 00:11:22;;;;;;;17.05;5.67;;;;;;;2.10;69.66;102243.36;1790328;78;25694;-62
2022/12/28 00:13:49;;;;;;;14.83;7.62;;;;;;;2.10;69.94;102250.00;1822337;78;28163;-63
2022/12/28 00:16:29;;;;;;;17.85;8.08;;;;;;;2.07;69.86;102250.97;1809692;77;25778;-62
2022/12/28 00:18:58;;;;;;;30.57;11.73;;;;;;;2.09;69.86;102246.94;1800687;77;25777;-62
2022/12/28 00:21:26;;;;;;;24.63;9.83;;;;;;;2.13;70.03;102253.44;1805359;78;25857;-62
2022/12/28 00:23:56;;;;;;;19.98;6.95;;;;;;;2.13;70.15;102249.45;1792648;78;25714;-63
2022/12/28 00:26:23;;;;;;;16.52;6.45;;;;;;;2.14;70.08;102255.17;1809014;77;27401;-63
2022/12/28 00:28:49;;;;;;;14.13;6.72;;;;;;;2.12;70.14;102251.69;1806719;78;26139;-63
2022/12/28 00:31:16;;;;;;;12.15;6.65;;;;;;;2.14;70.09;102256.98;1809859;78;25671;-63
2022/12/28 00:33:43;;;;;;;17.00;6.75;;;;;;;2.10;70.18;102256.64;1786838;78;25689;-63
2022/12/28 00:36:14;;;;;;;13.32;6.17;;;;;;;2.10;70.34;102260.63;1806469;78;25892;-63
2022/12/28 00:38:42;;;;;;;16.82;7.55;;;;;;;2.09;70.43;102260.20;1784314;78;27524;-63
2022/12/28 00:41:10;;;;;;;18.50;6.80;;;;;;;2.11;70.66;102269.86;1794380;78;25724;-63
2022/12/28 00:43:38;;;;;;;17.35;7.35;;;;;;;2.11;70.91;102267.20;1796180;78;25811;-63
2022/12/28 00:46:05;;;;;;;16.73;7.53;;;;;;;2.12;70.86;102267.63;1786596;80;25958;-63
2022/12/28 00:48:34;;;;;;;14.75;7.37;;;;;;;2.14;70.85;102261.81;1815088;78;25658;-63
2022/12/28 00:51:14;;;;;;;17.70;7.50;;;;;;;2.15;70.81;102253.41;1822180;78;28253;-63
2022/12/28 00:53:42;;;;;;;18.73;7.35;;;;;;;2.16;70.79;102253.36;1766186;78;25770;-63
2022/12/28 00:56:18;;;;;;;16.75;8.10;;;;;;;2.17;71.01;102247.13;1787058;78;25757;-63
2022/12/28 00:58:48;;;;;;;20.75;8.63;;;;;;;2.21;70.97;102247.02;1814207;78;25862;-63
2022/12/28 01:01:19;;;;;;;18.60;8.08;;;;;;;2.19;70.89;102245.31;1786973;79;25735;-63
2022/12/28 01:03:47;;;;;;;21.33;8.50;;;;;;;2.14;70.78;102237.92;1796276;77;28217;-63
2022/12/28 01:06:18;;;;;;;16.00;7.05;;;;;;;2.09;70.76;102238.97;1800187;78;25816;-63
2022/12/28 01:08:46;;;;;;;16.90;7.03;;;;;;;2.03;70.85;102238.69;1817980;78;25754;-63
2022/12/28 01:11:24;;;;;;;17.30;7.37;;;;;;;1.97;70.82;102237.55;1818719;78;25769;-63
2022/12/28 01:13:56;;;;;;;21.52;7.75;;;;;;;1.90;70.77;102246.61;1786187;78;25786;-63
2022/12/28 01:16:27;;;;;;;16.50;8.53;;;;;;;1.83;70.54;102248.55;1816035;78;27457;-63
2022/12/28 01:18:57;;;;;;;19.20;7.25;;;;;;;1.77;70.55;102242.95;1773450;78;25714;-63
2022/12/28 01:21:28;;;;;;;14.98;6.50;;;;;;;1.71;70.44;102243.99;1791249;80;25832;-62
2022/12/28 01:23:58;;;;;;;16.75;7.50;;;;;;;1.67;70.53;102248.98;1781672;80;25771;-62
2022/12/28 01:26:28;;;;;;;12.10;5.45;;;;;;;1.66;70.63;102243.73;1765993;78;25894;-62
2022/12/28 01:28:57;;;;;;;13.40;6.22;;;;;;;1.67;70.84;102238.38;1769185;80;27475;-62
2022/12/28 01:31:25;;;;;;;14.65;6.55;;;;;;;1.68;70.99;102233.92;1762421;80;25786;-62
2022/12/28 01:33:54;;;;;;;14.00;7.33;;;;;;;1.71;71.10;102243.14;1779129;78;25727;-62
2022/12/28 01:36:24;;;;;;;23.83;8.35;;;;;;;1.73;71.19;102240.00;1788922;80;25691;-62
2022/12/28 01:38:59;;;;;;;35.92;13.25;;;;;;;1.72;71.06;102233.80;1773030;80;25791;-62
2022/12/28 01:41:28;;;;;;;27.77;11.25;;;;;;;1.65;70.66;102231.38;1765049;80;28156;-62
2022/12/28 01:44:00;;;;;;;34.53;13.90;;;;;;;1.58;70.71;102228.02;1756796;80;25834;-62
2022/12/28 01:46:35;;;;;;;48.83;15.25;;;;;;;1.53;70.66;102229.91;1758372;80;25691;-62
2022/12/28 01:49:08;;;;;;;33.25;13.60;;;;;;;1.50;70.82;102244.13;1756404;80;25803;-62
2022/12/28 01:51:46;;;;;;;30.60;12.35;;;;;;;1.48;70.46;102247.74;1753052;80;25756;-62
2022/12/28 01:54:14;;;;;;;31.30;14.55;;;;;;;1.41;70.43;102251.00;1749092;80;27434;-62
2022/12/28 01:56:42;;;;;;;36.28;13.45;;;;;;;1.38;70.47;102252.44;1768909;80;25827;-62
2022/12/28 01:59:10;;;;;;;25.70;11.53;;;;;;;1.31;70.50;102249.06;1759596;80;26023;-62
2022/12/28 02:01:38;;;;;;;36.05;13.22;;;;;;;1.23;70.53;102249.72;1758688;80;25890;-62
2022/12/28 02:04:05;;;;;;;20.20;8.85;;;;;;;1.17;70.76;102248.53;1759173;80;25731;-62
2022/12/28 02:06:32;;;;;;;19.10;8.05;;;;;;;1.13;70.94;102253.03;1758907;81;27551;-62
2022/12/28 02:09:07;;;;;;;13.90;6.53;;;;;;;1.10;71.15;102255.78;1759009;79;27283;-62
2022/12/28 02:11:35;;;;;;;18.42;7.95;;;;;;;1.08;71.26;102262.90;1758090;80;26095;-62
2022/12/28 02:14:05;;;;;;;18.50;6.25;;;;;;;1.04;71.55;102266.08;1755731;80;25783;-62
2022/12/28 02:16:33;;;;;;;22.90;6.97;;;;;;;1.03;71.73;102254.20;1755865;81;25778;-62
2022/12/28 02:19:01;;;;;;;12.55;6.12;;;;;;;1.03;71.90;102267.45;1758250;80;28206;-62
2022/12/28 02:21:53;;;;;;;13.03;4.50;;;;;;;1.03;71.94;102263.02;1758704;80;25687;-62
2022/12/28 02:25:15;;;;;;;15.80;6.03;;;;;;;1.03;71.69;102272.75;1764925;80;25707;-62
2022/12/28 02:27:53;;;;;;;8.53;4.05;;;;;;;0.96;71.28;102272.02;1753597;79;26004;-62
2022/12/28 02:30:20;;;;;;;11.03;4.22;;;;;;;0.89;71.02;102276.59;1758689;80;25434;-62
2022/12/28 02:33:26;;;;;;;11.33;2.80;;;;;;;0.84;70.62;102278.50;1760520;80;27586;-62
2022/12/28 02:36:00;;;;;;;8.88;3.55;;;;;;;0.81;70.16;102277.23;1760940;80;25676;-62
2022/12/28 02:38:55;;;;;;;9.68;2.55;;;;;;;0.78;69.86;102285.23;1762785;80;25721;-62
2022/12/28 02:41:25;;;;;;;6.05;2.60;;;;;;;0.76;69.80;102281.78;1818138;78;26014;-62
2022/12/28 02:43:54;;;;;;;6.95;2.52;;;;;;;0.79;69.27;102283.02;1814625;78;25767;-62
2022/12/28 02:52:00;;;;;;;11.80;2.70;;;;;;;0.81;68.75;102281.20;1783041;78;25525;-62
2022/12/28 02:57:46;;;;;;;7.15;2.70;;;;;;;0.85;68.29;102292.59;1797686;78;25763;-62
2022/12/28 03:00:19;;;;;;;3.85;2.55;;;;;;;0.82;68.26;102295.31;1763838;80;27606;-62
2022/12/28 03:03:10;;;;;;;;;;;;;;;0.83;68.03;102299.70;1810813;78;25787;-62
2022/12/28 03:09:07;;;;;;;13.05;3.85;;;;;;;0.80;67.65;102294.50;1779405;78;25822;-62
2022/12/28 03:11:45;;;;;;;5.42;2.67;;;;;;;0.78;67.63;102298.48;1777002;80;25796;-63
2022/12/28 03:14:20;;;;;;;8.10;2.90;;;;;;;0.74;67.48;102298.16;1757625;80;27494;-63
2022/12/28 03:31:04;;;;;;;4.40;2.80;;;;;;;0.64;67.90;102313.36;1792217;80;25692;-62
2022/12/28 03:33:34;;;;;;;8.45;3.30;;;;;;;0.57;67.36;102307.79;1772532;79;25765;-62
2022/12/28 03:36:30;;;;;;;12.95;3.72;;;;;;;0.55;67.22;102309.16;1774204;80;25805;-62
2022/12/28 03:39:16;;;;;;;8.48;3.33;;;;;;;0.54;67.02;102312.70;1774233;79;25731;-63
2022/12/28 03:44:47;;;;;;;8.98;2.92;;;;;;;0.50;67.39;102320.28;1751936;80;25727;-63
2022/12/28 03:47:17;;;;;;;6.37;3.17;;;;;;;0.53;67.66;102325.99;1744800;81;25928;-63
2022/12/28 03:49:44;;;;;;;7.78;3.80;;;;;;;0.52;67.60;102330.40;1754565;80;25755;-64
2022/12/28 03:52:12;;;;;;;10.60;4.72;;;;;;;0.51;67.83;102328.66;1762094;81;25703;-63
2022/12/28 03:54:41;;;;;;;18.55;6.47;;;;;;;0.51;68.16;102335.27;1729685;81;27585;-63
2022/12/28 03:57:08;;;;;;;21.30;6.58;;;;;;;0.52;68.24;102335.70;1730340;80;25543;-63
2022/12/28 03:59:37;;;;;;;23.35;6.97;;;;;;;0.51;67.98;102329.97;1762137;80;25770;-64
2022/12/28 04:02:05;;;;;;;14.20;3.77;;;;;;;0.46;68.05;102326.56;1762158;79;26004;-64
2022/12/28 04:04:33;;;;;;;8.48;3.75;;;;;;;0.40;67.66;102334.19;1759467;79;25719;-63
2022/12/28 04:07:00;;;;;;;8.30;3.85;;;;;;;0.36;67.75;102331.63;1761923;80;27403;-63
2022/12/28 04:09:28;;;;;;;8.08;3.15;;;;;;;0.31;67.53;102339.20;1761968;80;25656;-63
2022/12/28 04:11:56;;;;;;;7.97;3.15;;;;;;;0.29;67.65;102334.84;1756985;80;26363;-64
2022/12/28 04:14:27;;;;;;;18.82;4.58;;;;;;;0.32;67.67;102342.73;1756082;80;25758;-63
2022/12/28 04:16:54;;;;;;;11.00;4.30;;;;;;;0.33;67.87;102336.54;1747540;80;25967;-64
2022/12/28 04:19:21;;;;;;;9.93;5.03;;;;;;;0.35;67.49;102345.33;1756790;80;27729;-63
2022/12/28 04:21:48;;;;;;;12.37;5.00;;;;;;;0.33;67.69;102350.21;1768044;80;25786;-64
2022/12/28 04:24:15;;;;;;;15.20;6.58;;;;;;;0.29;67.92;102350.73;1766314;80;25506;-64
2022/12/28 04:26:43;;;;;;;13.38;6.53;;;;;;;0.28;68.22;102356.48;1761365;80;26503;-64
2022/12/28 04:29:10;;;;;;;12.50;5.05;;;;;;;0.21;68.18;102357.52;1755921;80;25707;-64
2022/12/28 04:31:41;;;;;;;12.30;4.62;;;;;;;0.15;68.36;102359.83;1758683;80;27517;-64
2022/12/28 04:34:10;;;;;;;11.63;5.95;;;;;;;0.14;68.58;102366.45;1765388;80;26129;-64
2022/12/28 04:36:39;;;;;;;11.48;4.65;;;;;;;0.10;68.69;102366.97;1765849;80;25791;-64
2022/12/28 04:39:08;;;;;;;16.23;6.42;;;;;;;0.09;68.81;102361.25;1777007;80;25933;-64
2022/12/28 04:41:35;;;;;;;14.58;6.62;;;;;;;0.10;69.06;102374.91;1752430;80;25810;-64
2022/12/28 04:44:02;;;;;;;13.20;5.62;;;;;;;0.09;69.25;102378.45;1784040;80;28751;-64
2022/12/28 04:46:29;;;;;;;13.95;5.80;;;;;;;0.13;69.22;102374.00;1789591;78;25753;-64
2022/12/28 04:48:55;;;;;;;11.88;5.33;;;;;;;0.10;69.22;102381.98;1791681;80;25695;-64
2022/12/28 04:51:25;;;;;;;10.08;4.40;;;;;;;0.09;69.41;102382.88;1792320;80;25761;-63
2022/12/28 04:53:53;;;;;;;11.03;5.40;;;;;;;0.06;69.45;102384.25;1791002;79;26900;-64
2022/12/28 04:56:23;;;;;;;10.28;5.35;;;;;;;0.01;69.61;102384.80;1770394;81;27448;-64
2022/12/28 04:58:55;;;;;;;9.13;4.58;;;;;;;-0.06;69.46;102390.22;1770138;80;25747;-64
2022/12/28 05:01:23;;;;;;;13.58;5.75;;;;;;;-0.11;69.82;102397.34;1768052;80;25844;-62
2022/12/28 05:03:53;;;;;;;13.53;5.62;;;;;;;-0.12;70.03;102402.20;1760308;80;28010;-62
2022/12/28 05:06:22;;;;;;;13.15;5.70;;;;;;;-0.12;70.18;102396.92;1748174;82;26117;-62
2022/12/28 05:08:50;;;;;;;9.13;5.58;;;;;;;-0.13;70.20;102389.02;1749647;80;27633;-62
2022/12/28 05:11:24;;;;;;;13.22;5.35;;;;;;;-0.10;70.31;102400.88;1764076;81;25814;-64
2022/12/28 05:13:51;;;;;;;17.35;4.20;;;;;;;-0.09;70.43;102394.23;1762944;80;25754;-62
2022/12/28 05:16:22;;;;;;;8.75;3.92;;;;;;;-0.12;70.28;102400.03;1763418;80;28037;-64
2022/12/28 05:18:49;;;;;;;9.15;4.65;;;;;;;-0.11;70.15;102398.66;1751050;81;25679;-62
2022/12/28 05:21:23;;;;;;;9.35;4.50;;;;;;;-0.09;69.88;102398.66;1776126;80;28511;-63
2022/12/28 05:23:51;;;;;;;;;;;;;;;-0.08;69.81;102401.27;1810632;78;25769;-63
2022/12/28 05:26:21;;;;;;;13.58;3.70;;;;;;;-0.07;69.64;102402.13;1762835;78;26616;-62
2022/12/28 05:28:48;;;;;;;10.55;4.42;;;;;;;-0.03;69.54;102404.69;1790915;78;26431;-62
2022/12/28 05:31:21;;;;;;;10.78;4.03;;;;;;;-0.01;69.28;102404.22;1790642;78;25731;-62
2022/12/28 05:33:49;;;;;;;9.00;4.27;;;;;;;0.02;69.37;102406.40;1792254;80;27463;-63
2022/12/28 05:36:24;;;;;;;16.55;5.65;;;;;;;0.12;69.47;102405.33;1790323;80;25635;-62
2022/12/28 05:38:52;;;;;;;25.62;9.45;;;;;;;0.19;69.42;102410.93;1787993;79;25726;-62
2022/12/28 05:41:23;;;;;;;27.58;11.70;;;;;;;0.28;69.45;102415.16;1783997;78;25847;-62
2022/12/28 05:43:51;;;;;;;26.73;10.78;;;;;;;0.35;69.29;102413.28;1792052;78;25802;-63
2022/12/28 05:46:25;;;;;;;25.48;8.85;;;;;;;0.45;69.15;102427.63;1795658;78;27590;-63
2022/12/28 05:48:55;;;;;;;73.22;30.27;;;;;;;0.55;69.35;102427.00;1800097;78;25954;-62
2022/12/28 05:51:26;;;;;;;57.05;25.57;;;;;;;0.65;69.14;102428.14;1781605;78;25739;-63
2022/12/28 05:53:54;;;;;;;38.08;17.48;;;;;;;0.69;69.19;102431.14;1759091;78;25699;-63
2022/12/28 05:56:28;;;;;;;31.02;13.05;;;;;;;0.73;69.13;102436.80;1766119;78;25779;-62
2022/12/28 05:59:00;;;;;;;30.92;14.58;;;;;;;0.79;69.04;102435.34;1756019;81;28299;-62
2022/12/28 06:01:34;;;;;;;29.23;15.20;;;;;;;0.83;69.05;102436.15;1760943;78;25953;-62
2022/12/28 06:04:03;;;;;;;;;;;;;;;0.85;69.06;102439.18;1788103;80;25754;-63
2022/12/28 06:06:31;;;;;;;45.40;18.30;;;;;;;0.90;68.96;102433.78;1773614;78;25837;-63
2022/12/28 06:08:59;;;;;;;22.55;9.58;;;;;;;0.91;68.89;102431.13;1756374;78;25719;-63
2022/12/28 06:11:28;;;;;;;22.67;8.63;;;;;;;0.94;69.04;102434.16;1764672;80;28661;-62
2022/12/28 06:13:58;;;;;;;34.90;12.75;;;;;;;0.97;69.10;102442.48;1780321;80;25956;-62
2022/12/28 06:16:28;;;;;;;35.10;13.53;;;;;;;1.00;69.11;102442.42;1785666;78;25708;-62
2022/12/28 06:18:56;;;;;;;23.10;9.55;;;;;;;1.03;69.23;102450.33;1785510;80;26492;-62
2022/12/28 06:21:30;;;;;;;28.90;9.93;;;;;;;1.07;69.13;102449.34;1790481;80;25509;-63
2022/12/28 06:23:59;;;;;;;17.17;8.38;;;;;;;1.05;69.20;102453.36;1765302;80;28175;-63
2022/12/28 06:26:30;;;;;;;24.95;7.03;;;;;;;1.13;69.69;102448.33;1790245;80;25791;-63
2022/12/28 06:28:57;;;;;;;22.70;7.15;;;;;;;1.19;69.57;102446.86;1762011;78;25747;-64
2022/12/28 06:31:31;;;;;;;11.93;5.45;;;;;;;1.23;69.25;102455.18;1781786;78;25819;-63
2022/12/28 06:34:00;;;;;;;15.75;6.42;;;;;;;1.23;69.06;102460.02;1785957;80;25769;-64
2022/12/28 06:36:36;;;;;;;18.65;6.62;;;;;;;1.26;69.03;102461.72;1779190;78;27565;-64
2022/12/28 06:39:06;;;;;;;17.80;8.53;;;;;;;1.25;68.87;102468.81;1776520;79;25788;-64
2022/12/28 06:41:34;;;;;;;23.07;9.35;;;;;;;1.31;69.04;102474.44;1785078;80;25770;-64
2022/12/28 06:44:03;;;;;;;21.73;8.88;;;;;;;1.34;69.23;102478.36;1788327;80;25831;-64
2022/12/28 06:46:30;;;;;;;17.10;8.53;;;;;;;1.38;69.23;102481.34;1765929;78;25488;-64
2022/12/28 06:48:58;;;;;;;16.65;6.90;;;;;;;1.43;69.23;102472.42;1772723;80;27587;-64
2022/12/28 06:51:34;;;;;;;11.90;5.25;;;;;;;1.46;69.17;102479.86;1773236;78;25949;-64
2022/12/28 06:54:01;;;;;;;14.45;5.22;;;;;;;1.42;67.89;102475.52;1759400;81;26209;-64
2022/12/28 06:56:30;;;;;;;14.65;6.20;;;;;;;1.42;67.72;102476.84;1787576;80;25841;-64
2022/12/28 06:58:58;;;;;;;12.70;5.85;;;;;;;1.43;66.85;102485.69;1791164;80;25799;-64
2022/12/28 07:01:28;;;;;;;17.90;6.72;;;;;;;1.46;67.33;102479.86;1789536;80;27463;-65
2022/12/28 07:03:57;;;;;;;13.13;6.05;;;;;;;1.56;67.32;102495.09;1790958;80;25466;-64
2022/12/28 07:06:27;;;;;;;15.72;6.87;;;;;;;1.65;65.89;102492.70;1788217;78;25493;-64
2022/12/28 07:09:04;;;;;;;18.73;6.42;;;;;;;1.66;65.41;102500.61;1782736;80;25866;-65
2022/12/28 07:11:31;;;;;;;17.00;8.40;;;;;;;1.69;66.29;102507.18;1788905;80;25754;-66
2022/12/28 07:13:58;;;;;;;19.57;7.75;;;;;;;1.77;66.78;102511.42;1759366;81;27521;-65
2022/12/28 07:16:27;;;;;;;17.92;7.65;;;;;;;1.83;66.94;102512.59;1784319;80;25803;-64
2022/12/28 07:18:55;;;;;;;19.62;7.33;;;;;;;1.90;67.06;102509.35;1783653;80;25781;-65
2022/12/28 07:21:26;;;;;;;19.65;8.33;;;;;;;1.97;67.05;102507.81;1782867;78;25743;-65
2022/12/28 07:23:55;;;;;;;15.85;7.60;;;;;;;2.05;67.20;102502.80;1790855;78;25738;-65
2022/12/28 07:26:25;;;;;;;13.22;5.95;;;;;;;2.13;66.90;102497.70;1775450;80;27635;-66
2022/12/28 07:28:55;;;;;;;20.72;8.65;;;;;;;2.21;66.62;102497.52;1766294;79;26195;-65
2022/12/28 07:31:26;;;;;;;15.28;6.80;;;;;;;2.32;66.56;102497.22;1775977;80;25718;-65
2022/12/28 07:33:56;;;;;;;23.25;9.95;;;;;;;2.40;65.80;102493.91;1768296;78;25867;-65
2022/12/28 07:36:25;;;;;;;45.98;15.38;;;;;;;2.49;65.81;102491.01;1781317;78;25830;-65
2022/12/28 07:38:52;;;;;;;46.92;18.45;;;;;;;2.57;65.96;102495.23;1757427;78;27498;-65
2022/12/28 07:41:22;;;;;;;46.58;18.45;;;;;;;2.62;65.97;102488.88;1769833;80;25954;-65
2022/12/28 07:43:50;;;;;;;38.33;16.82;;;;;;;2.68;65.76;102491.83;1752660;81;25835;-66
2022/12/28 07:46:21;;;;;;;35.85;13.08;;;;;;;2.76;65.95;102491.16;1770173;80;25835;-65
2022/12/28 07:48:48;;;;;;;30.82;10.45;;;;;;;2.84;65.92;102489.62;1782700;79;26257;-66
2022/12/28 07:51:22;;;;;;;25.57;11.30;;;;;;;2.92;65.79;102490.27;1814142;79;27505;-65
2022/12/28 07:53:52;;;;;;;21.07;10.25;;;;;;;3.00;65.44;102486.08;1782519;80;25817;-65
2022/12/28 07:56:21;;;;;;;29.07;10.90;;;;;;;3.06;65.05;102483.66;1812001;79;25781;-65
2022/12/28 07:58:54;;;;;;;20.92;8.63;;;;;;;3.16;65.05;102486.47;1754592;81;26694;-65
2022/12/28 08:01:23;;;;;;;21.07;9.05;;;;;;;3.22;64.73;102488.97;1770398;80;25778;-65
2022/12/28 08:03:57;;;;;;;16.77;7.28;;;;;;;3.28;64.41;102487.88;1754416;80;28234;-65
2022/12/28 08:06:25;;;;;;;;;;;;;;;3.35;64.00;102481.92;1774218;80;25754;-65
2022/12/28 08:08:57;;;;;;;18.98;7.12;;;;;;;3.45;63.78;102486.05;1783762;80;25502;-65
2022/12/28 08:11:28;;;;;;;31.82;9.08;;;;;;;3.56;63.36;102495.02;1785926;79;25811;-66
2022/12/28 08:13:56;;;;;;;15.53;7.15;;;;;;;3.67;60.41;102492.04;1797154;79;25851;-65
2022/12/28 08:16:27;;;;;;;22.60;8.93;;;;;;;3.70;61.95;102490.15;1797481;79;28140;-65
2022/12/28 08:18:54;;;;;;;20.68;9.15;;;;;;;3.79;60.23;102486.30;1797042;79;25675;-65
2022/12/28 08:21:28;;;;;;;19.92;8.78;;;;;;;3.84;61.08;102484.82;1776706;79;25795;-65
2022/12/28 08:23:57;;;;;;;21.42;7.90;;;;;;;3.89;61.54;102493.55;1765535;79;26515;-65
2022/12/28 08:26:28;;;;;;;25.05;8.35;;;;;;;3.94;61.55;102498.24;1796295;79;26047;-65
2022/12/28 08:28:59;;;;;;;24.57;8.40;;;;;;;3.99;61.17;102505.61;1796200;79;27612;-65
2022/12/28 08:31:29;;;;;;;20.95;8.50;;;;;;;4.04;60.47;102493.03;1796512;78;25801;-65
2022/12/28 08:34:00;;;;;;;18.82;8.15;;;;;;;4.28;59.71;102494.44;1766932;79;25752;-65
2022/12/28 08:36:27;;;;;;;18.42;7.37;;;;;;;4.36;60.39;102487.52;1787816;79;26595;-65
2022/12/28 08:38:56;;;;;;;20.90;7.55;;;;;;;4.49;60.38;102488.81;1786179;79;25884;-65
2022/12/28 08:41:26;;;;;;;22.00;8.45;;;;;;;4.64;60.43;102483.41;1779082;79;27449;-65
2022/12/28 08:43:54;;;;;;;22.73;7.92;;;;;;;4.81;60.48;102475.25;1793733;79;25638;-65
2022/12/28 08:46:26;;;;;;;26.15;9.95;;;;;;;4.97;60.40;102476.44;1779664;79;25687;-65
2022/12/28 08:48:55;;;;;;;29.40;8.73;;;;;;;5.10;59.76;102476.84;1786907;79;26738;-65
2022/12/28 08:51:35;;;;;;;22.15;8.40;;;;;;;5.19;58.38;102481.42;1791462;79;25732;-65
2022/12/28 08:54:04;;;;;;;26.00;9.50;;;;;;;5.17;58.92;102476.12;1794541;79;28289;-65
2022/12/28 08:56:35;;;;;;;25.35;9.88;;;;;;;5.17;57.24;102466.78;1793828;79;25774;-65
2022/12/28 08:59:03;;;;;;;20.05;8.08;;;;;;;5.15;58.14;102464.66;1794359;79;25647;-66
2022/12/28 09:01:36;;;;;;;18.07;7.75;;;;;;;5.33;56.41;102471.92;1794053;79;25959;-65
2022/12/28 09:04:04;;;;;;;17.70;8.08;;;;;;;5.42;56.85;102471.19;1794281;79;25797;-64
2022/12/28 09:06:37;;;;;;;15.05;7.85;;;;;;;5.43;57.32;102462.22;1783788;79;28316;-64
2022/12/28 09:09:07;;;;;;;20.97;7.78;;;;;;;5.56;57.06;102459.95;1775585;80;25715;-64
2022/12/28 09:11:37;;;;;;;15.88;7.50;;;;;;;6.29;56.11;102456.95;1786165;79;25705;-65
2022/12/28 09:14:07;;;;;;;13.30;6.97;;;;;;;6.58;55.38;102458.34;1786780;79;25797;-65
2022/12/28 09:16:37;;;;;;;22.93;8.78;;;;;;;7.64;55.25;102446.27;1782956;79;25917;-64
2022/12/28 09:19:07;;;;;;;20.30;8.65;;;;;;;8.19;54.34;102452.47;1793866;79;27487;-64
2022/12/28 09:21:37;;;;;;;22.13;8.33;;;;;;;8.52;53.67;102449.84;1793319;79;25676;-65
2022/12/28 09:24:07;;;;;;;17.67;7.78;;;;;;;8.32;52.69;102453.55;1782093;79;25794;-64
2022/12/28 09:26:36;;;;;;;22.32;6.60;;;;;;;8.12;48.99;102459.47;1790368;79;25841;-65
2022/12/28 09:29:07;;;;;;;16.00;6.25;;;;;;;8.51;50.24;102462.89;1783639;79;25724;-64
2022/12/28 09:31:36;;;;;;;18.25;7.33;;;;;;;9.50;50.31;102451.23;1790749;79;28236;-64
2022/12/28 09:34:05;;;;;;;23.67;8.50;;;;;;;10.25;47.92;102449.99;1743875;81;25725;-65
2022/12/28 09:36:44;;;;;;;17.45;7.92;;;;;;;11.20;48.81;102445.52;1777963;79;25704;-66
2022/12/28 09:39:19;;;;;;;13.35;6.28;;;;;;;12.01;46.72;102434.36;1791961;78;25794;-65
2022/12/28 09:42:16;;;;;;;16.02;6.17;;;;;;;12.57;42.46;102439.98;1813797;78;25726;-66
2022/12/28 09:45:08;;;;;;;17.45;6.28;;;;;;;12.88;39.48;102433.25;1821196;78;27477;-65
2022/12/28 09:47:50;;;;;;;18.87;7.10;;;;;;;13.30;40.47;102431.08;1762799;78;25727;-65
2022/12/28 09:50:27;;;;;;;16.20;6.42;;;;;;;13.81;37.50;102437.26;1822153;78;25833;-66
2022/12/28 09:53:28;;;;;;;17.02;6.45;;;;;;;14.25;38.66;102428.06;1795397;78;25813;-65
2022/12/28 09:56:25;;;;;;;15.78;6.30;;;;;;;15.11;37.74;102427.14;1786496;78;25782;-65
2022/12/28 09:58:53;;;;;;;13.72;5.55;;;;;;;15.41;35.25;102425.61;1785633;80;27472;-65
2022/12/28 10:01:21;;;;;;;16.75;5.72;;;;;;;15.43;34.51;102418.69;1794412;79;25781;-65
2022/12/28 10:03:49;;;;;;;12.25;5.72;;;;;;;15.38;34.09;102416.36;1766659;79;25572;-65
2022/12/28 10:06:23;;;;;;;10.18;5.55;;;;;;;15.62;35.15;102412.09;1794559;78;25749;-65
2022/12/28 10:08:56;;;;;;;16.70;6.85;;;;;;;16.26;35.85;102415.74;1764503;81;43982;-66
2022/12/28 10:11:42;;;;;;;21.40;7.50;;;;;;;17.10;35.34;102412.98;1788129;79;27478;-66
2022/12/28 10:14:26;;;;;;;12.88;4.87;;;;;;;17.72;34.83;102413.61;1785185;77;25716;-65
2022/12/28 10:16:54;;;;;;;27.52;7.60;;;;;;;18.01;31.50;102409.20;1781124;78;25722;-65
2022/12/28 10:19:25;;;;;;;29.57;9.33;;;;;;;18.05;31.79;102400.59;1753990;78;26498;-66
2022/12/28 10:22:11;;;;;;;58.42;9.95;;;;;;;18.19;32.18;102400.64;1820527;77;25745;-66
2022/12/28 10:24:39;;;;;;;12.85;5.40;;;;;;;18.71;32.97;102405.61;1820446;78;27482;-66
2022/12/28 10:27:12;;;;;;;18.87;7.35;;;;;;;18.89;31.47;102412.50;1808474;78;25999;-65
2022/12/28 10:29:41;;;;;;;19.85;6.47;;;;;;;19.20;30.89;102419.02;1797904;78;25640;-66
2022/12/28 10:32:10;;;;;;;14.33;5.30;;;;;;;19.64;30.50;102416.05;1778743;80;25857;-67
2022/12/28 10:34:57;;;;;;;10.65;5.78;;;;;;;19.81;30.24;102410.23;1792839;78;25791;-67
2022/12/28 10:37:31;;;;;;;13.00;5.33;;;;;;;20.03;29.77;102413.53;1812086;78;28317;-66
2022/12/28 10:40:06;;;;;;;16.95;6.33;;;;;;;19.84;26.88;102403.11;1764318;80;26467;-67
2022/12/28 10:42:41;;;;;;;15.45;6.45;;;;;;;20.05;29.02;102399.18;1790651;78;25763;-67
2022/12/28 10:45:18;;;;;;;20.02;6.10;;;;;;;20.08;27.90;102401.08;1794798;79;27996;-66
2022/12/28 10:47:53;;;;;;;15.70;5.87;;;;;;;20.09;27.82;102393.23;1795964;79;25763;-67
2022/12/28 10:50:52;;;;;;;19.52;6.22;;;;;;;20.35;28.57;102395.11;1795418;79;28074;-67
2022/12/28 10:53:33;;;;;;;19.27;5.05;;;;;;;20.81;26.51;102394.88;1786998;79;25754;-65
2022/12/28 10:56:05;;;;;;;14.40;4.70;;;;;;;20.51;26.61;102386.67;1775382;79;25758;-66
2022/12/28 10:58:32;;;;;;;6.45;4.55;;;;;;;20.48;25.84;102376.94;1794018;78;26513;-66
2022/12/28 11:01:27;;;;;;;8.20;4.95;;;;;;;20.10;23.83;102370.37;1793384;78;25771;-67
2022/12/28 11:04:00;;;;;;;10.58;4.78;;;;;;;19.83;26.23;102372.19;1771795;78;27463;-67
2022/12/28 11:06:34;;;;;;;9.30;4.30;;;;;;;19.73;25.14;102370.58;1782219;78;25747;-66
2022/12/28 11:09:23;;;;;;;11.15;5.28;;;;;;;19.39;25.35;102375.75;1766755;81;25751;-65
2022/12/28 11:11:54;;;;;;;11.68;4.60;;;;;;;19.60;26.55;102363.64;1786068;79;25799;-66
2022/12/28 11:14:34;;;;;;;15.63;6.90;;;;;;;20.02;26.60;102362.13;1799147;79;25508;-66
2022/12/28 11:17:23;;;;;;;9.70;5.03;;;;;;;19.76;25.23;102367.02;1792902;78;27389;-67
2022/12/28 11:20:03;;;;;;;14.10;6.47;;;;;;;19.85;25.30;102361.16;1798965;79;25765;-67
2022/12/28 11:22:32;;;;;;;6.05;4.05;;;;;;;19.79;25.25;102353.06;1797778;78;25777;-65
2022/12/28 11:25:01;;;;;;;8.55;3.12;;;;;;;19.99;25.86;102349.65;1798367;79;25817;-65
2022/12/28 11:27:28;;;;;;;6.50;3.40;;;;;;;20.10;26.14;102356.71;1795584;78;25754;-66
2022/12/28 11:29:56;;;;;;;14.07;3.55;;;;;;;20.01;25.26;102357.67;1760616;78;27485;-65
2022/12/28 11:32:40;;;;;;;10.13;4.92;;;;;;;19.82;25.34;102355.98;1792941;78;25765;-66
2022/12/28 11:35:19;;;;;;;10.90;3.60;;;;;;;19.44;24.47;102353.94;1790858;79;25740;-66
2022/12/28 11:37:55;;;;;;;8.98;3.98;;;;;;;19.16;25.33;102349.92;1793692;78;25838;-65
2022/12/28 11:40:47;;;;;;;5.87;2.67;;;;;;;18.63;24.42;102352.36;1788332;79;25805;-66
2022/12/28 11:43:39;;;;;;;7.90;2.80;;;;;;;18.11;24.02;102346.02;1758439;81;27556;-65
2022/12/28 11:46:22;;;;;;;6.22;2.90;;;;;;;17.54;23.73;102348.17;1763585;78;25716;-65
2022/12/28 11:49:23;;;;;;;6.05;2.58;;;;;;;16.77;23.93;102360.12;1771292;78;25724;-65
2022/12/28 11:52:26;;;;;;;5.80;2.50;;;;;;;16.04;25.11;102358.38;1726706;82;25856;-65
2022/12/28 11:54:59;;;;;;;6.80;3.20;;;;;;;15.65;25.76;102354.84;1727172;81;25724;-65
2022/12/28 11:57:42;;;;;;;11.08;5.40;;;;;;;15.54;26.46;102351.33;1726071;82;28359;-65
2022/12/28 12:00:38;;;;;;;4.05;2.62;;;;;;;15.28;25.91;102355.75;1726373;83;26612;-66
2022/12/28 12:03:05;;;;;;;8.18;2.90;;;;;;;14.84;26.60;102342.17;1698963;82;25856;-65
2022/12/28 12:05:44;;;;;;;8.80;2.60;;;;;;;14.28;26.67;102348.45;1707047;82;25916;-65
2022/12/28 12:08:18;;;;;;;10.13;2.60;;;;;;;13.89;27.53;102344.23;1721163;82;25578;-64
2022/12/28 12:10:48;;;;;;;7.97;2.20;;;;;;;13.83;28.01;102344.69;1726930;82;28566;-65
2022/12/28 12:13:32;;;;;;;6.12;2.45;;;;;;;13.68;28.36;102345.88;1725807;82;25803;-64
2022/12/28 12:16:05;;;;;;;7.70;2.90;;;;;;;13.55;29.07;102343.26;1726763;81;26444;-66
2022/12/28 12:18:46;;;;;;;7.75;3.70;;;;;;;13.24;28.04;102342.36;1679496;83;26532;-66